Pagina principale
METAR-TAF:

METAR-TAF

Aeroporti :

Luxeuil-les-Bains, Francia

latitudine: 47-47N, longitudine: 006-21E, altezza: 278 m

Osservazione

Il bollettino è stato emesso 31 minuti fa, alle 02:30 UTC
Vento 7 kt da nord, variando fra nord e nord-est
Temperature 6°C
Umidità 75%
Pressione 1032 hPa
Visibilità 10 km o più
Nuvoloso ad un'altezza di 3100 ft
Cielo coperto ad un'altezza di 6000 ft

METAR: LFSX 270230Z AUTO 01007KT 350V050 9999 BKN031 OVC060 06/02 Q1032

Ora: 04:01 (03:01 UTC)

Previsione

Il bollettino è stato emesso 13 ore e 1 minuti fa, alle 14:00 UTC
Previsione valida dal 26 alle 15 UTC al 27 alle 15 UTC
Vento 10 kt da nord-ovest
Visibilità 10 km o più
Nuvoloso ad un'altezza di 3000 ft
Temporaneamente
dal 26 alle 16 UTC al 26 alle 20 UTC
Visibilità: 4900 m
Nuvoloso ad un'altezza di 900 ft
pioggia debole

TAF: LFSX 261400Z 2615/2715 32010KT 9999 BKN030 TEMPO 2616/2620 4900 -RA BKN009

Osservazioni e previsioni meteorologiche di più di 4000 aeroporti (messaggi METAR e TAF).

Le stazioni disponibili sono rappresentate dai dischi gialli e rossi sulla carta.

Puntare il mouse per vedere il nome della stazione.

Clicca sopra per visualizzare le osservazioni e previsioni meteorologiche.

Per cambiare la mappa : fare clic sui pulsanti verdi con una croce nera per ingrandire, il pulsante verde con un trattino per diminuire, o sulla freccia verde per le mappe adiacenti.


METAR-TAF: